Time;durP1;ratioP1;P1;durP2;ratioP2;P2;SDS_P1;SDS_P2;PMS_P1;PMS_P2;Temp;Humidity;BMP_temperature;BMP_pressure;BME280_temperature;BME280_humidity;BME280_pressure;Samples;Min_cycle;Max_cycle;Signal;HPM_P1;HPM_P2
2022/04/06 00:02:07;;;;;;;7.60;5.35;;;;;;;8.96;78.45;95644.31;5105982;28;20078;-73
2022/04/06 00:04:33;;;;;;;8.50;5.78;;;;;;;8.94;78.28;95641.16;5106265;28;20051;-74
2022/04/06 00:07:00;;;;;;;10.30;5.43;;;;;;;8.94;78.58;95634.94;5106948;28;20532;-75
2022/04/06 00:09:26;;;;;;;7.32;5.35;;;;;;;8.98;78.46;95633.13;5106334;28;20047;-74
2022/04/06 00:11:53;;;;;;;7.65;5.25;;;;;;;9.01;78.19;95625.13;5107482;28;20059;-74
2022/04/06 00:14:20;;;;;;;7.85;5.32;;;;;;;8.98;78.45;95622.25;5109900;28;20058;-74
2022/04/06 00:16:47;;;;;;;7.70;5.38;;;;;;;8.91;78.68;95630.91;5128159;28;20047;-74
2022/04/06 00:19:14;;;;;;;6.03;4.53;;;;;;;8.90;78.58;95629.34;5126722;27;20500;-74
2022/04/06 00:21:40;;;;;;;9.45;5.38;;;;;;;8.87;78.44;95624.53;5127771;27;20107;-74
2022/04/06 00:24:07;;;;;;;7.97;5.50;;;;;;;8.83;78.80;95624.41;5126629;27;20051;-74
2022/04/06 00:26:35;;;;;;;9.25;5.68;;;;;;;8.75;78.89;95627.94;5127473;28;20077;-74
2022/04/06 00:29:02;;;;;;;7.95;4.82;;;;;;;8.84;78.84;95622.50;5127121;28;20538;-74
2022/04/06 00:31:30;;;;;;;6.97;5.07;;;;;;;8.85;78.54;95626.78;5126943;28;20142;-74
2022/04/06 00:33:56;;;;;;;9.02;4.78;;;;;;;8.86;78.73;95629.19;5127524;27;20071;-73
2022/04/06 00:36:23;;;;;;;8.10;5.00;;;;;;;8.81;78.47;95625.84;5130317;27;20466;-75
2022/04/06 00:38:49;;;;;;;7.38;4.63;;;;;;;8.68;79.11;95626.84;5132033;27;20787;-73
2022/04/06 00:41:16;;;;;;;10.57;5.00;;;;;;;8.59;79.68;95622.22;5130060;27;20458;-74
2022/04/06 00:43:43;;;;;;;7.28;4.85;;;;;;;8.72;79.34;95627.78;5132226;27;20047;-74
2022/04/06 00:46:09;;;;;;;7.57;5.10;;;;;;;8.73;78.94;95618.53;5109631;28;20048;-73
2022/04/06 00:48:37;;;;;;;7.45;4.75;;;;;;;8.76;79.34;95626.03;5110659;28;20055;-74
2022/04/06 00:51:03;;;;;;;6.75;4.65;;;;;;;8.70;79.48;95619.16;5109953;28;20586;-74
2022/04/06 00:53:30;;;;;;;8.63;5.55;;;;;;;8.67;79.40;95619.84;5110306;28;20451;-75
2022/04/06 00:55:57;;;;;;;6.93;4.43;;;;;;;8.67;79.39;95619.84;5110807;28;20055;-73
2022/04/06 00:58:24;;;;;;;7.07;4.80;;;;;;;8.65;79.32;95620.13;5109189;28;20055;-74
2022/04/06 01:00:50;;;;;;;5.97;4.35;;;;;;;8.76;79.13;95620.59;5110485;28;20063;-74
2022/04/06 01:03:17;;;;;;;7.32;4.65;;;;;;;8.71;78.95;95620.75;5109252;28;20063;-75
2022/04/06 01:05:45;;;;;;;9.23;5.10;;;;;;;8.73;79.17;95613.09;5111247;28;20125;-74
2022/04/06 01:08:11;;;;;;;8.10;4.30;;;;;;;8.66;79.47;95613.59;5109272;28;20142;-75
2022/04/06 01:10:38;;;;;;;6.50;4.43;;;;;;;8.63;79.35;95611.53;5110431;28;20083;-74
2022/04/06 01:13:05;;;;;;;6.75;4.88;;;;;;;8.68;79.27;95616.78;5109427;28;20050;-75
2022/04/06 01:15:32;;;;;;;9.60;4.50;;;;;;;8.70;79.16;95617.25;5124594;27;20083;-73
2022/04/06 01:17:58;;;;;;;7.55;5.03;;;;;;;8.68;79.04;95611.38;5130758;27;20050;-75
2022/04/06 01:20:25;;;;;;;8.20;4.80;;;;;;;8.65;79.04;95601.13;5129754;27;20046;-74
2022/04/06 01:22:53;;;;;;;5.85;4.60;;;;;;;8.73;79.30;95602.25;5131135;27;20043;-74
2022/04/06 01:25:19;;;;;;;7.53;5.55;;;;;;;8.70;78.79;95598.25;5129774;27;20050;-74
2022/04/06 01:27:46;;;;;;;7.85;4.63;;;;;;;8.61;79.11;95601.00;5131278;27;20046;-74
2022/04/06 01:30:12;;;;;;;7.10;4.50;;;;;;;8.68;79.00;95597.78;5129331;27;20050;-74
2022/04/06 01:32:39;;;;;;;7.80;4.82;;;;;;;8.70;78.63;95592.81;5131037;27;20047;-74
2022/04/06 01:35:06;;;;;;;9.00;5.07;;;;;;;8.75;78.44;95594.56;5129426;27;20496;-73
2022/04/06 01:37:34;;;;;;;8.02;5.40;;;;;;;8.73;78.65;95585.97;5130784;27;20080;-74
2022/04/06 01:40:04;;;;;;;7.57;5.07;;;;;;;8.69;78.68;95582.31;5130102;27;20051;-73
2022/04/06 01:42:31;;;;;;;6.82;4.88;;;;;;;8.66;78.50;95599.22;5129942;27;20066;-74
2022/04/06 01:44:58;;;;;;;10.68;5.10;;;;;;;8.68;78.40;95595.06;5119181;27;20131;-73
2022/04/06 01:47:24;;;;;;;7.88;5.47;;;;;;;8.67;78.61;95589.97;5107722;28;20051;-74
2022/04/06 01:52:36;;;;;;;8.07;5.53;;;;;;;8.76;77.81;95585.31;5108792;28;20516;-74
2022/04/06 01:55:06;;;;;;;9.02;6.13;;;;;;;8.77;78.24;95592.31;5109319;28;20513;-73
2022/04/06 01:57:34;;;;;;;12.10;6.28;;;;;;;8.70;78.26;95592.03;5109269;28;20059;-74
2022/04/06 02:00:02;;;;;;;7.78;5.38;;;;;;;8.65;78.54;95584.06;5109160;28;20051;-73
2022/04/06 02:02:31;;;;;;;9.35;5.40;;;;;;;8.63;78.58;95582.47;5109619;28;20047;-73
2022/04/06 02:04:58;;;;;;;7.32;5.25;;;;;;;8.75;78.10;95583.72;5108997;28;20071;-74
2022/04/06 02:07:25;;;;;;;7.70;5.32;;;;;;;8.81;77.82;95577.78;5109329;28;20599;-73
2022/04/06 02:09:51;;;;;;;9.23;5.95;;;;;;;8.87;77.52;95575.66;5108519;28;20059;-74
2022/04/06 02:12:19;;;;;;;9.18;5.13;;;;;;;8.89;77.45;95581.59;5108998;28;20043;-74
2022/04/06 02:14:46;;;;;;;8.10;5.45;;;;;;;8.92;77.15;95577.41;5108214;28;20043;-73
2022/04/06 02:17:12;;;;;;;7.47;5.55;;;;;;;8.78;78.02;95573.00;5108786;28;20062;-73
2022/04/06 02:19:39;;;;;;;8.02;5.47;;;;;;;8.77;77.89;95567.88;5108699;28;20051;-73
2022/04/06 02:22:07;;;;;;;8.55;5.68;;;;;;;8.73;78.16;95572.41;5108656;28;20147;-73
2022/04/06 02:24:34;;;;;;;7.80;5.63;;;;;;;8.71;78.23;95561.03;5109034;28;20055;-73
2022/04/06 02:27:01;;;;;;;7.93;5.15;;;;;;;8.54;78.84;95565.41;5108695;28;20055;-73
2022/04/06 02:29:29;;;;;;;9.07;5.78;;;;;;;8.59;78.77;95551.66;5108774;28;20051;-73
2022/04/06 02:31:56;;;;;;;9.88;5.22;;;;;;;8.63;78.87;95555.34;5108089;28;20049;-74
2022/04/06 02:34:22;;;;;;;7.78;5.22;;;;;;;8.65;78.47;95559.63;5108752;28;20055;-73
2022/04/06 02:36:49;;;;;;;6.70;5.07;;;;;;;8.62;78.65;95552.97;5107883;28;20051;-73
2022/04/06 02:39:15;;;;;;;9.65;5.35;;;;;;;8.65;78.41;95551.50;5108608;28;20044;-73
2022/04/06 02:41:42;;;;;;;6.72;4.88;;;;;;;8.62;78.53;95545.59;5108264;28;20063;-73
2022/04/06 02:44:08;;;;;;;7.35;5.00;;;;;;;8.61;78.67;95546.72;5108401;28;20052;-73
2022/04/06 02:46:36;;;;;;;9.40;5.60;;;;;;;8.51;78.95;95551.69;5108709;28;20055;-73
2022/04/06 02:49:03;;;;;;;9.27;4.97;;;;;;;8.46;79.40;95541.84;5107789;28;20043;-73
2022/04/06 02:51:29;;;;;;;7.63;5.32;;;;;;;8.54;78.78;95546.41;5108319;28;20047;-73
2022/04/06 02:53:55;;;;;;;8.65;5.55;;;;;;;8.52;78.83;95545.97;5107725;28;20055;-74
2022/04/06 02:56:22;;;;;;;8.07;5.50;;;;;;;8.48;79.28;95550.44;5108238;28;20051;-73
2022/04/06 02:58:48;;;;;;;8.93;5.65;;;;;;;8.46;79.48;95536.41;5107693;28;20057;-73
2022/04/06 03:01:15;;;;;;;10.55;6.10;;;;;;;8.50;79.32;95540.03;5108121;28;20050;-73
2022/04/06 03:03:43;;;;;;;8.82;5.40;;;;;;;8.60;79.03;95542.41;5107642;28;20532;-73
2022/04/06 03:06:10;;;;;;;9.05;5.85;;;;;;;8.56;78.78;95538.78;5107893;28;20043;-74
2022/04/06 03:08:37;;;;;;;7.78;5.18;;;;;;;8.63;78.73;95543.69;5107652;28;20135;-73
2022/04/06 03:11:04;;;;;;;9.18;6.25;;;;;;;8.60;78.70;95534.25;5106885;28;20051;-73
2022/04/06 03:13:31;;;;;;;9.13;6.25;;;;;;;8.57;78.63;95537.66;5107794;28;20047;-72
2022/04/06 03:15:58;;;;;;;9.90;6.18;;;;;;;8.60;78.73;95530.75;5106646;28;20104;-73
2022/04/06 03:18:24;;;;;;;10.10;5.85;;;;;;;8.67;78.36;95530.28;5107447;28;20054;-74
2022/04/06 03:20:52;;;;;;;8.98;6.22;;;;;;;8.69;77.96;95519.88;5106653;28;20528;-73
2022/04/06 03:23:19;;;;;;;10.73;6.15;;;;;;;8.68;77.97;95527.22;5107623;28;20456;-73
2022/04/06 03:25:46;;;;;;;10.77;5.88;;;;;;;8.72;77.86;95525.47;5106972;28;20051;-73
2022/04/06 03:28:12;;;;;;;9.82;6.68;;;;;;;8.66;77.90;95523.22;5107316;28;20047;-73
2022/04/06 03:30:39;;;;;;;10.68;6.57;;;;;;;8.69;78.10;95525.31;5106636;28;20053;-73
2022/04/06 03:33:08;;;;;;;9.30;6.18;;;;;;;8.76;77.83;95525.59;5107424;28;20056;-73
2022/04/06 03:35:35;;;;;;;9.43;5.88;;;;;;;8.70;77.63;95532.31;5107601;28;20048;-76
2022/04/06 03:38:03;;;;;;;10.30;6.43;;;;;;;8.73;77.73;95527.03;5107205;28;20047;-73
2022/04/06 03:40:30;;;;;;;9.13;6.25;;;;;;;8.66;77.95;95526.72;5107550;28;20052;-73
2022/04/06 03:42:56;;;;;;;10.30;6.45;;;;;;;8.66;77.91;95515.88;5103140;28;20039;-74
2022/04/06 03:45:23;;;;;;;10.27;7.25;;;;;;;8.66;77.76;95515.88;5107145;28;20051;-73
2022/04/06 03:47:49;;;;;;;10.48;6.60;;;;;;;8.59;77.63;95521.81;5103879;28;20055;-74
2022/04/06 03:50:17;;;;;;;10.52;7.38;;;;;;;8.47;78.16;95513.56;5107125;28;20043;-73
2022/04/06 03:52:43;;;;;;;12.85;7.05;;;;;;;8.54;78.04;95516.56;5106690;28;20108;-73
2022/04/06 03:55:11;;;;;;;9.80;6.97;;;;;;;8.63;78.01;95514.63;5106782;28;20050;-74
2022/04/06 03:57:38;;;;;;;11.32;6.85;;;;;;;8.67;77.54;95506.63;5106994;28;20148;-73
2022/04/06 04:00:07;;;;;;;10.15;6.88;;;;;;;8.66;77.30;95506.94;5106521;28;20062;-74
2022/04/06 04:02:34;;;;;;;12.30;6.80;;;;;;;8.72;77.33;95511.06;5107359;28;20055;-73
2022/04/06 04:05:03;;;;;;;9.48;6.78;;;;;;;8.72;76.70;95509.16;5106508;28;20436;-73
2022/04/06 04:07:29;;;;;;;13.00;7.50;;;;;;;8.72;76.44;95511.06;5106993;28;20127;-73
2022/04/06 04:09:56;;;;;;;11.30;7.47;;;;;;;8.70;77.02;95510.59;5105662;28;20059;-73
2022/04/06 04:12:24;;;;;;;10.70;7.57;;;;;;;8.76;76.58;95512.00;5106844;28;20096;-74
2022/04/06 04:14:50;;;;;;;10.40;6.55;;;;;;;8.79;76.41;95503.22;5127161;27;20051;-73
2022/04/06 04:17:17;;;;;;;10.70;7.38;;;;;;;8.73;76.27;95512.69;5126698;27;20499;-74
2022/04/06 04:19:43;;;;;;;11.98;7.05;;;;;;;8.73;76.61;95504.53;5126998;28;20058;-73
2022/04/06 04:22:10;;;;;;;13.30;8.13;;;;;;;8.67;76.74;95503.94;5126742;28;20073;-74
2022/04/06 04:24:36;;;;;;;13.02;7.88;;;;;;;8.63;76.81;95506.50;5127127;28;20074;-73
2022/04/06 04:27:03;;;;;;;10.52;7.30;;;;;;;8.55;77.11;95501.88;5126817;28;20047;-73
2022/04/06 04:29:31;;;;;;;12.43;7.68;;;;;;;8.67;77.03;95511.28;5127568;28;20075;-73
2022/04/06 04:31:57;;;;;;;11.48;7.47;;;;;;;8.66;76.87;95509.66;5127234;27;20448;-73
2022/04/06 04:34:24;;;;;;;10.85;7.20;;;;;;;8.76;76.75;95507.38;5127179;28;20059;-73
2022/04/06 04:36:50;;;;;;;11.88;7.13;;;;;;;8.74;76.70;95506.13;5126879;28;20046;-74
2022/04/06 04:39:18;;;;;;;10.10;7.43;;;;;;;8.75;76.78;95507.72;5127366;27;20050;-73
2022/04/06 04:41:45;;;;;;;12.80;7.25;;;;;;;8.72;76.83;95502.91;5127167;28;20066;-74
2022/04/06 04:44:11;;;;;;;11.63;7.07;;;;;;;8.70;76.78;95502.47;5108031;28;20052;-73
2022/04/06 04:46:40;;;;;;;12.32;7.40;;;;;;;8.73;76.59;95505.34;5105957;28;20707;-74
2022/04/06 04:49:06;;;;;;;12.88;7.22;;;;;;;8.85;76.55;95508.13;5105920;28;20060;-74
2022/04/06 04:51:33;;;;;;;12.63;7.10;;;;;;;8.89;76.31;95509.06;5106542;28;20505;-73
2022/04/06 04:53:59;;;;;;;11.32;7.47;;;;;;;8.94;75.85;95502.66;5106052;28;20051;-73
2022/04/06 04:56:28;;;;;;;11.95;7.10;;;;;;;8.98;75.87;95503.63;5106502;28;20536;-74
2022/04/06 04:58:54;;;;;;;12.35;7.53;;;;;;;9.03;75.77;95503.41;5106179;28;20044;-74
2022/04/06 05:01:21;;;;;;;11.10;6.85;;;;;;;9.09;75.51;95504.81;5106076;28;20047;-74
2022/04/06 05:03:49;;;;;;;12.68;7.03;;;;;;;9.14;75.50;95510.06;5106095;28;20051;-73
2022/04/06 05:06:16;;;;;;;10.38;6.80;;;;;;;9.18;75.14;95506.66;5106285;28;20067;-76
2022/04/06 05:08:43;;;;;;;10.18;7.03;;;;;;;9.22;75.21;95513.03;5106212;28;20051;-74
2022/04/06 05:11:10;;;;;;;11.20;6.63;;;;;;;9.24;75.03;95513.50;5105680;28;20055;-73
2022/04/06 05:13:36;;;;;;;11.43;6.68;;;;;;;9.22;75.18;95516.56;5116453;27;20055;-73
2022/04/06 05:16:03;;;;;;;10.40;6.88;;;;;;;9.22;75.18;95511.13;5126094;28;20047;-74
2022/04/06 05:18:30;;;;;;;10.60;6.45;;;;;;;9.24;75.13;95513.50;5127244;28;20493;-74
2022/04/06 05:20:58;;;;;;;14.93;7.05;;;;;;;9.24;75.17;95518.94;5108442;28;20070;-76
2022/04/06 05:23:25;;;;;;;14.27;6.85;;;;;;;9.23;75.34;95512.69;5110170;28;20052;-75
2022/04/06 05:25:52;;;;;;;11.13;6.68;;;;;;;9.26;75.43;95506.63;5109152;28;20060;-74
2022/04/06 05:28:18;;;;;;;14.15;7.10;;;;;;;9.29;74.99;95510.59;5109897;28;20044;-74
2022/04/06 05:30:46;;;;;;;11.52;6.93;;;;;;;9.30;75.10;95513.00;5109167;28;20134;-75
2022/04/06 05:33:13;;;;;;;11.55;6.97;;;;;;;9.33;75.25;95508.81;5109138;28;20673;-76
2022/04/06 05:35:39;;;;;;;11.00;6.93;;;;;;;9.34;75.20;95508.50;5109744;28;20052;-77
2022/04/06 05:38:08;;;;;;;11.63;7.20;;;;;;;9.37;75.59;95515.19;5109160;28;20047;-76
2022/04/06 05:40:35;;;;;;;13.80;6.88;;;;;;;9.37;75.57;95520.63;5109361;28;20063;-76
2022/04/06 05:43:01;;;;;;;10.75;6.63;;;;;;;9.38;75.63;95511.31;5114467;27;20047;-75
2022/04/06 05:45:28;;;;;;;9.82;6.50;;;;;;;9.38;75.57;95519.47;5130055;27;20039;-76
2022/04/06 05:47:54;;;;;;;16.05;6.03;;;;;;;9.38;75.25;95514.84;5129779;27;20588;-76
2022/04/06 05:50:21;;;;;;;12.90;5.97;;;;;;;9.40;75.42;95514.53;5129805;27;20510;-76
2022/04/06 05:52:48;;;;;;;10.95;5.63;;;;;;;9.41;75.41;95513.41;5129182;27;20054;-75
2022/04/06 05:55:16;;;;;;;11.43;5.85;;;;;;;9.43;75.69;95513.84;5128939;27;20054;-77
2022/04/06 05:57:43;;;;;;;10.50;5.80;;;;;;;9.47;75.60;95512.06;5129570;27;20054;-76
2022/04/06 06:00:10;;;;;;;12.07;5.65;;;;;;;9.51;75.76;95513.00;5128760;27;20051;-76
2022/04/06 06:02:37;;;;;;;9.77;5.03;;;;;;;9.51;75.84;95501.34;5129682;27;20047;-76
2022/04/06 06:05:04;;;;;;;11.20;5.35;;;;;;;9.53;75.65;95510.75;5129099;27;20051;-75
2022/04/06 06:07:31;;;;;;;10.90;4.90;;;;;;;9.56;75.43;95512.81;5130145;27;20413;-75
2022/04/06 06:09:57;;;;;;;10.90;5.32;;;;;;;9.58;75.18;95510.53;5128777;27;20051;-76
2022/04/06 06:12:25;;;;;;;7.07;4.53;;;;;;;9.59;75.22;95509.41;5126777;27;20051;-75
2022/04/06 06:14:52;;;;;;;6.45;4.32;;;;;;;9.58;75.55;95507.81;5128908;27;20058;-75
2022/04/06 06:17:18;;;;;;;8.52;5.55;;;;;;;9.58;75.76;95510.53;5129470;27;20058;-76
2022/04/06 06:19:45;;;;;;;6.75;4.90;;;;;;;9.49;76.14;95509.81;5128926;27;20604;-76
2022/04/06 06:22:11;;;;;;;9.38;5.13;;;;;;;9.51;76.39;95513.00;5128513;27;20508;-77
2022/04/06 06:24:38;;;;;;;6.47;4.28;;;;;;;9.55;76.17;95508.50;5129380;27;20039;-76
2022/04/06 06:27:04;;;;;;;8.57;4.70;;;;;;;9.64;76.36;95506.50;5128869;27;20047;-76
2022/04/06 06:29:32;;;;;;;8.30;4.80;;;;;;;9.74;76.27;95504.50;5129317;27;20035;-76
2022/04/06 06:31:59;;;;;;;7.68;4.72;;;;;;;9.81;75.79;95502.81;5128207;27;20497;-76
2022/04/06 06:34:25;;;;;;;6.05;4.40;;;;;;;9.90;75.69;95502.75;5129091;27;20043;-76
2022/04/06 06:36:52;;;;;;;6.65;4.10;;;;;;;9.96;75.26;95500.63;5128559;27;20047;-77
2022/04/06 06:39:18;;;;;;;11.80;5.22;;;;;;;10.04;75.23;95503.28;5128643;27;20409;-76
2022/04/06 06:41:45;;;;;;;10.18;4.50;;;;;;;10.08;75.15;95503.41;5128402;27;20047;-76
2022/04/06 06:44:11;;;;;;;11.13;5.75;;;;;;;10.03;75.03;95506.34;5110107;27;20040;-76
2022/04/06 06:46:39;;;;;;;7.82;4.50;;;;;;;10.09;74.71;95505.00;5108283;28;20047;-76
2022/04/06 06:49:06;;;;;;;9.02;5.03;;;;;;;10.12;73.82;95509.75;5107768;28;20635;-75
2022/04/06 06:51:33;;;;;;;6.15;4.47;;;;;;;10.28;73.40;95512.66;5107731;28;20067;-76
2022/04/06 06:54:00;;;;;;;7.20;4.85;;;;;;;10.36;72.86;95509.06;5107723;28;20051;-76
2022/04/06 06:56:27;;;;;;;7.20;4.60;;;;;;;10.51;72.71;95505.69;5107559;28;20051;-76
2022/04/06 06:58:54;;;;;;;7.53;5.00;;;;;;;10.58;71.90;95508.63;5107283;28;20051;-76
2022/04/06 07:01:20;;;;;;;8.77;4.88;;;;;;;10.68;71.54;95501.97;5107562;28;20058;-75
2022/04/06 07:03:48;;;;;;;7.30;4.93;;;;;;;10.85;70.89;95498.22;5108470;28;20059;-77
2022/04/06 07:06:15;;;;;;;8.70;5.53;;;;;;;10.80;71.18;95498.44;5107222;28;20127;-76
2022/04/06 07:08:42;;;;;;;8.35;5.03;;;;;;;10.78;71.12;95495.28;5107639;28;20058;-75
2022/04/06 07:11:08;;;;;;;8.85;4.70;;;;;;;10.74;70.62;95502.53;5106883;28;20043;-75
2022/04/06 07:13:35;;;;;;;8.52;6.07;;;;;;;10.63;71.71;95492.06;5107232;28;20059;-75
2022/04/06 07:16:01;;;;;;;7.60;5.05;;;;;;;10.37;72.29;95497.03;5107619;28;20430;-76
2022/04/06 07:18:29;;;;;;;6.88;5.15;;;;;;;10.51;72.51;95489.34;5099516;27;20054;-76
2022/04/06 07:20:57;;;;;;;8.18;5.38;;;;;;;10.65;72.74;95495.28;5106881;27;20086;-76
2022/04/06 07:23:23;;;;;;;8.38;5.85;;;;;;;10.80;71.81;95490.28;5107269;27;20497;-75
2022/04/06 07:25:50;;;;;;;11.50;5.82;;;;;;;10.69;71.80;95501.59;5106953;27;20528;-78
2022/04/06 07:28:16;;;;;;;9.18;5.85;;;;;;;10.90;72.15;95489.81;5106928;27;20410;-75
2022/04/06 07:30:43;;;;;;;8.35;5.05;;;;;;;11.09;71.19;95487.31;5106495;28;20048;-76
2022/04/06 07:33:09;;;;;;;8.52;5.40;;;;;;;11.08;70.75;95491.19;5106224;28;20051;-75
2022/04/06 07:35:37;;;;;;;8.38;5.07;;;;;;;11.22;70.13;95494.34;5106733;28;20100;-74
2022/04/06 07:38:05;;;;;;;9.60;4.80;;;;;;;11.07;69.96;95488.81;5106175;28;20055;-75
2022/04/06 07:40:32;;;;;;;11.40;5.35;;;;;;;10.93;70.88;95500.03;5107203;28;20051;-75
2022/04/06 07:42:59;;;;;;;6.25;4.70;;;;;;;11.02;70.13;95489.84;5106166;28;20552;-75
2022/04/06 07:45:25;;;;;;;10.10;5.45;;;;;;;11.24;69.98;95489.34;5106184;27;20044;-75
2022/04/06 07:47:54;;;;;;;9.40;5.43;;;;;;;11.31;70.27;95482.53;5106444;27;20048;-75
2022/04/06 07:50:22;;;;;;;9.73;6.28;;;;;;;11.43;68.49;95490.66;5106430;27;20039;-75
2022/04/06 07:52:49;;;;;;;8.50;5.57;;;;;;;11.22;68.56;95491.63;5105866;27;20058;-74
2022/04/06 07:55:17;;;;;;;7.63;4.75;;;;;;;11.57;67.61;95485.63;5106764;27;20048;-76
2022/04/06 07:57:45;;;;;;;7.70;4.20;;;;;;;12.33;66.06;95485.81;5106567;27;20058;-75
2022/04/06 08:00:15;;;;;;;8.80;4.07;;;;;;;13.35;63.29;95472.28;5106131;27;20067;-76
2022/04/06 08:02:42;;;;;;;8.10;4.13;;;;;;;13.62;60.29;95474.06;5106503;27;20054;-78
2022/04/06 08:05:09;;;;;;;5.90;3.60;;;;;;;14.10;58.46;95480.13;5106109;27;20043;-75
2022/04/06 08:07:39;;;;;;;5.30;3.53;;;;;;;14.54;57.29;95474.31;5107320;27;20043;-76
2022/04/06 08:10:07;;;;;;;5.32;3.70;;;;;;;15.12;53.87;95471.34;5105315;27;20055;-75
2022/04/06 08:12:35;;;;;;;5.03;3.17;;;;;;;15.16;54.15;95469.44;5108078;27;20525;-76
2022/04/06 08:15:01;;;;;;;4.68;3.50;;;;;;;15.91;51.56;95470.50;5125557;27;20054;-74
2022/04/06 08:17:30;;;;;;;7.15;3.58;;;;;;;16.03;53.07;95469.47;5127168;27;20050;-76
2022/04/06 08:19:56;;;;;;;5.28;3.97;;;;;;;16.50;52.07;95470.78;5126599;27;20138;-75
2022/04/06 08:22:23;;;;;;;7.22;3.60;;;;;;;17.27;50.05;95467.09;5126177;27;20058;-76
2022/04/06 08:24:49;;;;;;;5.45;3.83;;;;;;;17.42;48.02;95470.75;5126532;27;20054;-77
2022/04/06 08:27:16;;;;;;;5.47;3.80;;;;;;;16.89;47.76;95474.69;5126477;27;20047;-76
2022/04/06 08:29:43;;;;;;;5.90;4.13;;;;;;;15.82;51.20;95473.53;5126946;27;20047;-76
2022/04/06 08:32:10;;;;;;;7.25;4.60;;;;;;;15.53;53.53;95468.81;5125609;27;20050;-76
2022/04/06 08:34:37;;;;;;;6.03;4.28;;;;;;;15.34;53.24;95475.19;5127541;27;20076;-76
2022/04/06 08:37:04;;;;;;;9.18;4.78;;;;;;;15.01;53.99;95467.63;5123635;27;20039;-77
2022/04/06 08:39:30;;;;;;;7.07;4.88;;;;;;;14.56;55.33;95469.25;5126750;27;20047;-76
2022/04/06 08:41:57;;;;;;;7.88;4.68;;;;;;;14.30;57.83;95457.03;5126041;27;20046;-77
2022/04/06 08:44:24;;;;;;;8.35;5.07;;;;;;;14.41;58.50;95456.41;5106173;27;20043;-80
2022/04/06 08:46:52;;;;;;;6.32;5.00;;;;;;;14.61;57.56;95466.19;5105648;27;20517;-76
2022/04/06 08:49:20;;;;;;;7.72;5.28;;;;;;;14.62;57.62;95454.09;5105431;27;20062;-77
2022/04/06 08:51:46;;;;;;;7.13;5.38;;;;;;;14.47;56.39;95460.47;5105984;27;20073;-76
2022/04/06 08:54:14;;;;;;;7.28;5.03;;;;;;;14.13;57.93;95459.44;5105098;27;20047;-78
2022/04/06 08:56:40;;;;;;;8.57;4.82;;;;;;;14.37;57.47;95450.91;5109108;27;20054;-76
2022/04/06 08:59:07;;;;;;;7.47;4.90;;;;;;;14.80;59.87;95451.66;5109072;27;20128;-77
2022/04/06 09:01:34;;;;;;;9.88;4.82;;;;;;;15.80;55.67;95442.91;5110380;27;20058;-77
2022/04/06 09:04:02;;;;;;;5.47;4.20;;;;;;;15.76;52.03;95452.25;5109433;27;20258;-78
2022/04/06 09:06:32;;;;;;;5.30;4.30;;;;;;;15.59;52.50;95448.09;5110315;27;20514;-77
2022/04/06 09:08:58;;;;;;;8.95;4.60;;;;;;;15.12;55.17;95441.19;5109470;27;20051;-77
2022/04/06 09:11:28;;;;;;;6.38;4.78;;;;;;;14.93;55.41;95444.81;5108971;28;20047;-77
2022/04/06 09:13:58;;;;;;;8.50;5.00;;;;;;;14.52;56.79;95430.06;5109491;27;20048;-77
2022/04/06 09:16:28;;;;;;;9.65;5.82;;;;;;;14.09;57.88;95441.00;5109080;27;20565;-77
2022/04/06 09:18:55;;;;;;;5.82;4.60;;;;;;;13.93;59.53;95436.75;5110332;27;20090;-77
2022/04/06 09:21:23;;;;;;;8.45;5.47;;;;;;;13.69;59.39;95433.19;5108079;27;20055;-75
2022/04/06 09:23:49;;;;;;;6.68;4.53;;;;;;;13.82;59.58;95426.41;5109853;27;20059;-77
2022/04/06 09:26:19;;;;;;;6.45;4.85;;;;;;;13.90;60.01;95426.56;5108238;27;20433;-77
2022/04/06 09:28:47;;;;;;;9.15;5.00;;;;;;;13.68;59.43;95422.59;5109789;27;20044;-76
2022/04/06 09:31:15;;;;;;;7.60;5.10;;;;;;;13.72;60.55;95421.50;5108216;27;20418;-77
2022/04/06 09:33:43;;;;;;;9.93;4.65;;;;;;;13.68;62.37;95417.94;5109030;27;20559;-77
2022/04/06 09:36:19;;;;;;;8.15;4.80;;;;;;;13.62;60.80;95418.56;5109013;27;20164;-77
2022/04/06 09:38:48;;;;;;;8.30;5.10;;;;;;;13.63;61.27;95418.22;5107971;27;20134;-76
2022/04/06 09:41:15;;;;;;;7.00;5.32;;;;;;;13.80;61.05;95415.03;5107925;27;20575;-76
2022/04/06 09:43:45;;;;;;;6.38;4.18;;;;;;;14.42;58.23;95411.47;5119667;27;20047;-76
2022/04/06 09:49:09;;;;;;;7.47;4.93;;;;;;;14.06;56.71;95413.56;5081699;28;20047;-75
2022/04/06 09:51:36;;;;;;;6.50;4.82;;;;;;;14.00;58.00;95410.34;5108739;28;20066;-79
2022/04/06 09:54:06;;;;;;;5.32;4.15;;;;;;;13.87;58.27;95410.84;5108416;28;20054;-78
2022/04/06 09:56:34;;;;;;;8.10;4.47;;;;;;;13.76;58.56;95399.69;5108249;28;20059;-78
2022/04/06 09:59:02;;;;;;;6.03;4.38;;;;;;;13.85;58.72;95405.75;5109456;28;20100;-77
2022/04/06 10:01:33;;;;;;;7.97;4.47;;;;;;;14.28;59.22;95393.63;5091316;27;20058;-77
2022/04/06 10:04:04;;;;;;;7.97;4.40;;;;;;;14.89;57.87;95389.16;5108515;28;20519;-78
2022/04/06 10:06:33;;;;;;;5.63;4.03;;;;;;;15.07;55.59;95378.44;5107887;27;20463;-76
2022/04/06 10:09:01;;;;;;;7.60;4.13;;;;;;;15.34;54.86;95368.22;5107725;28;20510;-78
2022/04/06 10:11:29;;;;;;;5.45;4.22;;;;;;;15.29;54.54;95369.31;5107788;27;20040;-78
2022/04/06 10:13:56;;;;;;;4.93;3.92;;;;;;;15.68;54.39;95374.53;5089976;27;20051;-78
2022/04/06 10:16:24;;;;;;;5.22;3.90;;;;;;;16.04;53.40;95369.44;5087291;28;20139;-77
2022/04/06 10:18:52;;;;;;;9.27;4.78;;;;;;;16.25;50.96;95369.66;5087421;28;20438;-78
2022/04/06 10:21:23;;;;;;;5.40;4.40;;;;;;;16.18;51.08;95366.81;5087601;28;20059;-78
2022/04/06 10:24:11;;;;;;;4.50;3.40;;;;;;;16.18;51.16;95358.59;5087179;28;20122;-76
2022/04/06 10:26:50;;;;;;;6.38;4.32;;;;;;;16.01;51.18;95353.72;5087977;28;20052;-78
2022/04/06 10:29:17;;;;;;;7.07;4.18;;;;;;;16.24;53.48;95350.81;5097940;27;20048;-77
2022/04/06 10:31:46;;;;;;;18.58;5.43;;;;;;;16.62;50.20;95339.34;5107145;27;20051;-78
2022/04/06 10:34:22;;;;;;;6.63;3.75;;;;;;;16.39;50.68;95345.06;5107852;27;20051;-78
2022/04/06 10:37:06;;;;;;;6.13;4.38;;;;;;;16.11;51.69;95331.06;5106857;28;20078;-78
2022/04/06 10:39:33;;;;;;;6.30;3.80;;;;;;;16.36;52.54;95337.56;5108461;28;20062;-78
2022/04/06 10:42:19;;;;;;;4.63;3.88;;;;;;;16.50;52.19;95319.63;5106805;28;20410;-78
2022/04/06 10:44:46;;;;;;;5.68;3.90;;;;;;;16.89;49.65;95315.19;5122512;27;20469;-77
2022/04/06 10:47:13;;;;;;;6.25;4.03;;;;;;;17.02;52.63;95306.63;5107388;28;20058;-78
2022/04/06 10:49:40;;;;;;;9.15;4.55;;;;;;;16.74;49.73;95308.03;5107743;28;20055;-79
2022/04/06 10:52:22;;;;;;;5.50;3.70;;;;;;;16.53;49.16;95308.66;5107386;28;20039;-78
2022/04/06 10:54:49;;;;;;;5.50;4.32;;;;;;;16.65;50.83;95299.28;5107069;28;20130;-78
2022/04/06 10:57:17;;;;;;;5.18;3.85;;;;;;;16.57;50.51;95303.97;5107516;28;20039;-80
2022/04/06 10:59:44;;;;;;;6.57;4.22;;;;;;;16.39;49.68;95303.03;5107059;28;20765;-79
2022/04/06 11:02:19;;;;;;;6.13;4.45;;;;;;;16.12;49.81;95300.47;5107110;28;20051;-78
2022/04/06 11:04:46;;;;;;;4.65;3.92;;;;;;;16.09;51.88;95292.22;5107839;28;20051;-78
2022/04/06 11:07:15;;;;;;;6.45;4.18;;;;;;;15.89;51.35;95286.94;5106915;28;20052;-78
2022/04/06 11:12:29;;;;;;;6.18;4.80;;;;;;;15.81;52.43;95279.78;5106304;28;20054;-77
2022/04/06 11:15:20;;;;;;;7.10;4.70;;;;;;;15.90;53.33;95277.53;5108091;28;20058;-77
2022/04/06 11:17:48;;;;;;;6.30;4.20;;;;;;;16.09;52.60;95278.50;5107244;28;20127;-78
2022/04/06 11:20:16;;;;;;;6.00;4.35;;;;;;;16.14;50.92;95281.66;5106428;28;20101;-78
2022/04/06 11:22:45;;;;;;;7.93;3.92;;;;;;;16.26;51.77;95272.34;5107809;28;20051;-78
2022/04/06 11:25:13;;;;;;;5.80;4.50;;;;;;;16.30;49.15;95267.66;5106339;28;20118;-76
2022/04/06 11:27:43;;;;;;;8.65;4.43;;;;;;;16.52;50.42;95262.31;5107499;28;20062;-77
2022/04/06 11:30:13;;;;;;;5.95;4.18;;;;;;;16.95;48.87;95253.16;5105938;28;20866;-77
2022/04/06 11:32:40;;;;;;;7.75;4.00;;;;;;;17.21;47.24;95259.56;5107866;28;20057;-77
2022/04/06 11:35:08;;;;;;;4.88;3.75;;;;;;;17.19;47.25;95251.69;5106282;28;20134;-77
2022/04/06 11:37:40;;;;;;;5.72;4.05;;;;;;;16.95;47.17;95250.41;5107542;28;20528;-77
2022/04/06 11:40:08;;;;;;;5.73;3.50;;;;;;;17.14;47.73;95248.53;5106368;28;20039;-76
2022/04/06 11:42:35;;;;;;;5.68;3.78;;;;;;;17.44;47.09;95235.28;5107009;28;20051;-77
2022/04/06 11:45:04;;;;;;;4.75;3.45;;;;;;;17.81;49.09;95223.19;5106426;28;20048;-78
2022/04/06 11:47:33;;;;;;;6.40;3.88;;;;;;;18.18;47.15;95227.53;5106396;28;20039;-78